• Join FlightAware (Why Join?)
  • Login
  • US Flag 
Rudolph Flight #1: Arrived! 
11:48AM EST


 

Airport Tracker/Info


-or-


 

Live Flight TrackerFlight Track Log ✈ EGF4129 ✈ 07-May-2013 ✈ KCMI - KORD

Flight Track Log - Related Links

Times and Time Zones

All times are in EDT time to prevent confusion due to time zone crossing. See the EGF4129 flight status page for this flight to view local times or setup timezone preferences in your user account.

Time Position Orientation Groundspeed Altitude Reporting Facility
EDT Latitude Longitude Course Direction KTS MPH feet Rate Location/Type
07:05PM 40.0661 -88.3428 337° Northwest 236 272 16,000  Level Chicago Center
07:06PM 40.2517 -88.3910 335° Northwest  Level FlightAware Approximate
07:06PM 40.1272 -88.3758 338° Northwest 256 295 7,600  Level Chicago Center
07:07PM 40.3243 -88.4303 346° North  Level FlightAware Approximate
07:07PM 40.2011 -88.4183 336° Northwest 266 306 10,100  Level Chicago Center
07:08PM 40.3945 -88.4792 330° Northwest  Level FlightAware Approximate
07:08PM 40.2783 -88.4578 339° North 293 337 11,600  Level Chicago Center
07:09PM 40.4680 -88.5198 337° Northwest  Level FlightAware Approximate
07:09PM 40.3703 -88.5028 340° North 317 365 13,500  Level Chicago Center
07:10PM 40.5415 -88.5618 337° Northwest  Level FlightAware Approximate
07:10PM 40.4581 -88.5481 339° North 335 386 14,900  Level Chicago Center
07:11PM 40.5611 -88.5983 340° North 360 414 16,100 480 Climbing Chicago Center
07:12PM 40.6606 -88.6508 338° Northwest 384 442 16,000 -60 Descending Chicago Center
07:13PM 40.7606 -88.7025 339° North 386 444 16,000  Level Chicago Center
07:14PM 40.8614 -88.7308 348° North 379 436 16,000  Level Chicago Center
07:15PM 40.9636 -88.7150 North 370 426 16,000 -300 Level Chicago Center
07:16PM 41.0603 -88.6972 North 354 407 15,500 -900 Descending Chicago Center
07:17PM 41.1686 -88.6811 North 325 374 14,200 -1,380 Descending Chicago Center
07:18PM 41.2525 -88.6686 North 306 352 12,700 -1,080 Descending Chicago Center
07:19PM 41.3339 -88.6569 North 297 342 12,000 -480 Descending Chicago Center
07:20PM 41.4156 -88.6433 North 295 339 11,700 -540 Descending Chicago Center
07:21PM 41.4803 -88.5833 35° Northeast 294 338 11,000 -360 Descending Chicago Center
07:22PM 41.5286 -88.4767 59° Northeast 284 327 11,000 -840 Level Chicago Center
07:23PM 41.5572 -88.3778 69° East 287 330 9,300 -1,500 Descending Chicago Center
07:24PM 41.6083 -88.3042 47° Northeast 278 320 8,000 -660 Descending Chicago Center
07:25PM 41.6656 -88.2389 40° Northeast 269 310 8,000 -480 Level Chicago Center
07:26PM 41.7206 -88.1728 42° Northeast 266 306 7,100 -1,260 Descending Chicago Center
07:27PM 41.7692 -88.1169 41° Northeast 241 277 5,500 -1,440 Descending Chicago Center
07:28PM 41.8161 -88.0611 42° Northeast 207 238 4,200 -1,080 Descending Chicago Center
07:29PM 41.8533 -88.0178 41° Northeast 191 220 3,300 -960 Descending Chicago Center
07:30PM 41.8833 -87.9833 41° Northeast 174 200 2,500 -960 Descending Chicago TRACON
07:31PM 41.9167 -87.9500 37° Northeast 141 162 1,700 -840 Descending Chicago TRACON
07:32PM 41.9333 -87.9167 56° Northeast 132 152 1,000 -720 Descending Chicago TRACON